sensor_id;sensor_type;location;lat;lon;timestamp;P1;durP1;ratioP1;P2;durP2;ratioP2
38083;SDS011;23894;51.466;7.444;2024-03-07T12:22:59;18.40;;;11.60;;
38083;SDS011;23894;51.466;7.444;2024-03-07T12:25:03;18.83;;;13.13;;
38083;SDS011;23894;51.466;7.444;2024-03-07T12:27:08;18.05;;;12.52;;
38083;SDS011;23894;51.466;7.444;2024-03-07T12:29:10;18.55;;;12.63;;
38083;SDS011;23894;51.466;7.444;2024-03-07T12:31:11;16.83;;;12.43;;
38083;SDS011;23894;51.466;7.444;2024-03-07T12:33:17;16.85;;;11.43;;
38083;SDS011;23894;51.466;7.444;2024-03-07T12:35:18;17.80;;;11.50;;
38083;SDS011;23894;51.466;7.444;2024-03-07T12:37:19;15.50;;;11.50;;
38083;SDS011;23894;51.466;7.444;2024-03-07T12:39:26;16.52;;;11.73;;
38083;SDS011;23894;51.466;7.444;2024-03-07T12:41:33;17.52;;;11.32;;
38083;SDS011;23894;51.466;7.444;2024-03-07T12:43:34;15.70;;;11.38;;
38083;SDS011;23894;51.466;7.444;2024-03-07T12:45:35;16.63;;;11.20;;
38083;SDS011;23894;51.466;7.444;2024-03-07T12:47:36;17.00;;;10.95;;
38083;SDS011;23894;51.466;7.444;2024-03-07T12:49:37;14.77;;;10.15;;
38083;SDS011;23894;51.466;7.444;2024-03-07T12:51:38;14.40;;;10.50;;
38083;SDS011;23894;51.466;7.444;2024-03-07T12:53:41;15.25;;;10.10;;
38083;SDS011;23894;51.466;7.444;2024-03-07T12:55:42;14.27;;;9.88;;
38083;SDS011;23894;51.466;7.444;2024-03-07T12:57:47;15.07;;;9.88;;
38083;SDS011;23894;51.466;7.444;2024-03-07T12:59:49;13.32;;;9.80;;
38083;SDS011;23894;51.466;7.444;2024-03-07T13:01:52;16.08;;;10.55;;
38083;SDS011;23894;51.466;7.444;2024-03-07T13:03:54;14.93;;;9.27;;
38083;SDS011;23894;51.466;7.444;2024-03-07T13:05:56;13.38;;;9.35;;
38083;SDS011;23894;51.466;7.444;2024-03-07T13:08:00;14.52;;;9.73;;
38083;SDS011;23894;51.466;7.444;2024-03-07T13:10:01;15.77;;;10.10;;
38083;SDS011;23894;51.466;7.444;2024-03-07T13:12:03;15.93;;;10.50;;
38083;SDS011;23894;51.466;7.444;2024-03-07T13:14:04;16.08;;;9.43;;
38083;SDS011;23894;51.466;7.444;2024-03-07T13:16:05;15.03;;;9.53;;
38083;SDS011;23894;51.466;7.444;2024-03-07T13:18:07;15.98;;;9.95;;
38083;SDS011;23894;51.466;7.444;2024-03-07T13:20:12;13.55;;;9.48;;
38083;SDS011;23894;51.466;7.444;2024-03-07T13:22:14;15.93;;;9.67;;
38083;SDS011;23894;51.466;7.444;2024-03-07T13:24:15;13.07;;;9.35;;
38083;SDS011;23894;51.466;7.444;2024-03-07T13:26:17;15.43;;;9.18;;
38083;SDS011;23894;51.466;7.444;2024-03-07T13:28:23;13.60;;;9.02;;
38083;SDS011;23894;51.466;7.444;2024-03-07T13:30:26;12.38;;;8.80;;
38083;SDS011;23894;51.466;7.444;2024-03-07T13:32:29;14.52;;;9.60;;
38083;SDS011;23894;51.466;7.444;2024-03-07T13:34:30;13.00;;;9.00;;
38083;SDS011;23894;51.466;7.444;2024-03-07T13:36:32;13.80;;;9.10;;
38083;SDS011;23894;51.466;7.444;2024-03-07T13:38:33;13.80;;;8.98;;
38083;SDS011;23894;51.466;7.444;2024-03-07T13:40:34;14.10;;;8.05;;
38083;SDS011;23894;51.466;7.444;2024-03-07T13:42:38;12.88;;;7.95;;
38083;SDS011;23894;51.466;7.444;2024-03-07T13:44:39;11.95;;;8.05;;
38083;SDS011;23894;51.466;7.444;2024-03-07T13:46:41;13.55;;;8.57;;
38083;SDS011;23894;51.466;7.444;2024-03-07T13:48:43;14.18;;;8.13;;
38083;SDS011;23894;51.466;7.444;2024-03-07T13:50:44;12.93;;;7.78;;
38083;SDS011;23894;51.466;7.444;2024-03-07T13:52:46;13.05;;;7.97;;
38083;SDS011;23894;51.466;7.444;2024-03-07T13:55:04;13.98;;;8.18;;
38083;SDS011;23894;51.466;7.444;2024-03-07T14:17:17;11.20;;;6.95;;
38083;SDS011;23894;51.466;7.444;2024-03-07T14:19:31;12.43;;;7.57;;
38083;SDS011;23894;51.466;7.444;2024-03-07T14:24:05;12.63;;;7.40;;
38083;SDS011;23894;51.466;7.444;2024-03-07T14:26:14;12.00;;;7.20;;
38083;SDS011;23894;51.466;7.444;2024-03-07T14:28:38;11.32;;;7.60;;
38083;SDS011;23894;51.466;7.444;2024-03-07T14:30:52;13.13;;;7.88;;
38083;SDS011;23894;51.466;7.444;2024-03-07T14:32:59;11.30;;;7.30;;
38083;SDS011;23894;51.466;7.444;2024-03-07T14:35:17;14.10;;;8.07;;
38083;SDS011;23894;51.466;7.444;2024-03-07T14:37:22;12.73;;;8.30;;
38083;SDS011;23894;51.466;7.444;2024-03-07T14:39:23;15.38;;;8.30;;
38083;SDS011;23894;51.466;7.444;2024-03-07T14:44:15;15.57;;;8.48;;
38083;SDS011;23894;51.466;7.444;2024-03-07T14:46:16;13.93;;;8.70;;
38083;SDS011;23894;51.466;7.444;2024-03-07T14:48:18;15.38;;;9.77;;
38083;SDS011;23894;51.466;7.444;2024-03-07T14:50:19;14.00;;;9.03;;
38083;SDS011;23894;51.466;7.444;2024-03-07T14:52:20;14.70;;;8.82;;
38083;SDS011;23894;51.466;7.444;2024-03-07T14:54:21;15.52;;;9.55;;
38083;SDS011;23894;51.466;7.444;2024-03-07T14:56:22;15.10;;;9.55;;
38083;SDS011;23894;51.466;7.444;2024-03-07T14:58:23;16.35;;;9.85;;
38083;SDS011;23894;51.466;7.444;2024-03-07T15:00:25;16.30;;;10.00;;
38083;SDS011;23894;51.466;7.444;2024-03-07T15:02:26;17.80;;;10.20;;
38083;SDS011;23894;51.466;7.444;2024-03-07T15:04:28;17.25;;;10.45;;
38083;SDS011;23894;51.466;7.444;2024-03-07T15:06:31;16.73;;;10.27;;
38083;SDS011;23894;51.466;7.444;2024-03-07T15:08:32;17.38;;;11.25;;
38083;SDS011;23894;51.466;7.444;2024-03-07T15:10:34;18.02;;;10.25;;
38083;SDS011;23894;51.466;7.444;2024-03-07T15:12:35;19.88;;;11.00;;
38083;SDS011;23894;51.466;7.444;2024-03-07T15:14:36;16.45;;;10.63;;
38083;SDS011;23894;51.466;7.444;2024-03-07T15:16:38;16.48;;;10.93;;
38083;SDS011;23894;51.466;7.444;2024-03-07T15:18:39;17.43;;;10.33;;
38083;SDS011;23894;51.466;7.444;2024-03-07T15:20:43;17.08;;;10.82;;
38083;SDS011;23894;51.466;7.444;2024-03-07T15:22:47;17.25;;;11.00;;
38083;SDS011;23894;51.466;7.444;2024-03-07T15:24:48;17.17;;;10.73;;
38083;SDS011;23894;51.466;7.444;2024-03-07T15:26:49;16.85;;;11.18;;
38083;SDS011;23894;51.466;7.444;2024-03-07T15:28:50;18.83;;;10.30;;
38083;SDS011;23894;51.466;7.444;2024-03-07T15:30:51;18.95;;;11.05;;
38083;SDS011;23894;51.466;7.444;2024-03-07T15:32:52;15.77;;;10.90;;
38083;SDS011;23894;51.466;7.444;2024-03-07T15:34:53;16.55;;;10.73;;
38083;SDS011;23894;51.466;7.444;2024-03-07T15:37:00;18.08;;;10.70;;
38083;SDS011;23894;51.466;7.444;2024-03-07T15:39:02;20.63;;;11.32;;
38083;SDS011;23894;51.466;7.444;2024-03-07T15:41:19;17.33;;;10.95;;
38083;SDS011;23894;51.466;7.444;2024-03-07T15:43:21;17.60;;;11.07;;
38083;SDS011;23894;51.466;7.444;2024-03-07T15:45:26;17.25;;;11.05;;
38083;SDS011;23894;51.466;7.444;2024-03-07T15:47:27;16.98;;;11.05;;
38083;SDS011;23894;51.466;7.444;2024-03-07T15:49:29;17.35;;;10.57;;
38083;SDS011;23894;51.466;7.444;2024-03-07T15:51:30;21.73;;;10.98;;
38083;SDS011;23894;51.466;7.444;2024-03-07T15:53:31;17.02;;;11.07;;
38083;SDS011;23894;51.466;7.444;2024-03-07T15:55:34;17.27;;;11.50;;
38083;SDS011;23894;51.466;7.444;2024-03-07T15:57:35;19.52;;;11.27;;
38083;SDS011;23894;51.466;7.444;2024-03-07T15:59:36;16.55;;;10.73;;
38083;SDS011;23894;51.466;7.444;2024-03-07T16:01:37;17.70;;;10.77;;
38083;SDS011;23894;51.466;7.444;2024-03-07T16:03:38;17.55;;;11.18;;
38083;SDS011;23894;51.466;7.444;2024-03-07T16:05:41;17.85;;;11.25;;
38083;SDS011;23894;51.466;7.444;2024-03-07T16:07:43;16.05;;;10.80;;
38083;SDS011;23894;51.466;7.444;2024-03-07T16:09:45;17.98;;;11.52;;
38083;SDS011;23894;51.466;7.444;2024-03-07T16:11:46;16.77;;;11.05;;
38083;SDS011;23894;51.466;7.444;2024-03-07T16:13:48;18.30;;;11.23;;
38083;SDS011;23894;51.466;7.444;2024-03-07T16:15:50;17.33;;;11.35;;
38083;SDS011;23894;51.466;7.444;2024-03-07T16:17:55;20.10;;;12.10;;
38083;SDS011;23894;51.466;7.444;2024-03-07T16:19:56;19.20;;;11.65;;
38083;SDS011;23894;51.466;7.444;2024-03-07T16:21:57;20.63;;;12.10;;
38083;SDS011;23894;51.466;7.444;2024-03-07T16:23:59;20.52;;;12.38;;
38083;SDS011;23894;51.466;7.444;2024-03-07T16:26:00;19.13;;;11.93;;
38083;SDS011;23894;51.466;7.444;2024-03-07T16:28:04;18.85;;;12.07;;
38083;SDS011;23894;51.466;7.444;2024-03-07T16:30:06;19.30;;;11.35;;
38083;SDS011;23894;51.466;7.444;2024-03-07T16:32:11;19.63;;;11.75;;
38083;SDS011;23894;51.466;7.444;2024-03-07T16:34:14;17.50;;;10.23;;
38083;SDS011;23894;51.466;7.444;2024-03-07T16:36:16;18.58;;;11.13;;
38083;SDS011;23894;51.466;7.444;2024-03-07T16:38:17;20.45;;;11.68;;
38083;SDS011;23894;51.466;7.444;2024-03-07T16:40:19;20.38;;;11.82;;
38083;SDS011;23894;51.466;7.444;2024-03-07T16:42:20;20.17;;;12.20;;
38083;SDS011;23894;51.466;7.444;2024-03-07T16:44:21;19.73;;;11.85;;
38083;SDS011;23894;51.466;7.444;2024-03-07T16:46:22;18.15;;;10.90;;
38083;SDS011;23894;51.466;7.444;2024-03-07T16:48:23;19.08;;;10.90;;
38083;SDS011;23894;51.466;7.444;2024-03-07T16:50:26;22.35;;;11.48;;
38083;SDS011;23894;51.466;7.444;2024-03-07T16:52:27;17.52;;;11.05;;
38083;SDS011;23894;51.466;7.444;2024-03-07T16:54:28;22.00;;;11.38;;
38083;SDS011;23894;51.466;7.444;2024-03-07T16:56:29;15.85;;;10.13;;
38083;SDS011;23894;51.466;7.444;2024-03-07T16:58:30;18.02;;;10.38;;
38083;SDS011;23894;51.466;7.444;2024-03-07T17:00:33;20.67;;;11.02;;
38083;SDS011;23894;51.466;7.444;2024-03-07T17:02:39;19.25;;;10.98;;
38083;SDS011;23894;51.466;7.444;2024-03-07T17:04:39;17.05;;;10.45;;
38083;SDS011;23894;51.466;7.444;2024-03-07T17:06:40;19.55;;;11.52;;
38083;SDS011;23894;51.466;7.444;2024-03-07T17:08:41;21.52;;;11.32;;
38083;SDS011;23894;51.466;7.444;2024-03-07T17:10:42;20.52;;;10.75;;
38083;SDS011;23894;51.466;7.444;2024-03-07T17:12:44;22.10;;;11.25;;
38083;SDS011;23894;51.466;7.444;2024-03-07T17:14:45;20.50;;;11.32;;
38083;SDS011;23894;51.466;7.444;2024-03-07T17:18:47;19.13;;;10.77;;
38083;SDS011;23894;51.466;7.444;2024-03-07T17:20:48;19.77;;;11.77;;
38083;SDS011;23894;51.466;7.444;2024-03-07T17:22:50;21.83;;;12.57;;
38083;SDS011;23894;51.466;7.444;2024-03-07T17:26:53;20.25;;;11.20;;
38083;SDS011;23894;51.466;7.444;2024-03-07T17:28:55;23.33;;;12.63;;
38083;SDS011;23894;51.466;7.444;2024-03-07T17:32:57;22.13;;;12.00;;
38083;SDS011;23894;51.466;7.444;2024-03-07T17:34:59;21.48;;;12.32;;
38083;SDS011;23894;51.466;7.444;2024-03-07T17:39:01;22.52;;;11.93;;
38083;SDS011;23894;51.466;7.444;2024-03-07T17:41:02;26.35;;;13.88;;
38083;SDS011;23894;51.466;7.444;2024-03-07T17:43:03;20.70;;;12.98;;
38083;SDS011;23894;51.466;7.444;2024-03-07T17:45:04;21.60;;;12.63;;
38083;SDS011;23894;51.466;7.444;2024-03-07T17:47:11;25.42;;;13.32;;
38083;SDS011;23894;51.466;7.444;2024-03-07T17:49:14;20.95;;;11.75;;
38083;SDS011;23894;51.466;7.444;2024-03-07T17:51:18;21.85;;;12.77;;
38083;SDS011;23894;51.466;7.444;2024-03-07T17:53:19;25.67;;;12.88;;
38083;SDS011;23894;51.466;7.444;2024-03-07T17:55:20;23.50;;;13.57;;
38083;SDS011;23894;51.466;7.444;2024-03-07T17:57:24;23.52;;;13.35;;
38083;SDS011;23894;51.466;7.444;2024-03-07T17:59:28;23.60;;;14.00;;
38083;SDS011;23894;51.466;7.444;2024-03-07T18:01:31;25.38;;;14.05;;
38083;SDS011;23894;51.466;7.444;2024-03-07T18:03:32;27.00;;;13.57;;
38083;SDS011;23894;51.466;7.444;2024-03-07T18:05:33;31.45;;;14.90;;
38083;SDS011;23894;51.466;7.444;2024-03-07T18:07:36;24.88;;;13.75;;
38083;SDS011;23894;51.466;7.444;2024-03-07T18:09:41;25.77;;;14.85;;
38083;SDS011;23894;51.466;7.444;2024-03-07T18:11:42;23.83;;;14.10;;
38083;SDS011;23894;51.466;7.444;2024-03-07T18:13:43;23.70;;;13.95;;
38083;SDS011;23894;51.466;7.444;2024-03-07T18:15:44;24.90;;;14.00;;
38083;SDS011;23894;51.466;7.444;2024-03-07T18:17:46;30.58;;;14.73;;
38083;SDS011;23894;51.466;7.444;2024-03-07T18:19:54;25.95;;;14.68;;
38083;SDS011;23894;51.466;7.444;2024-03-07T18:21:55;28.58;;;14.98;;
38083;SDS011;23894;51.466;7.444;2024-03-07T18:23:56;23.50;;;12.88;;
38083;SDS011;23894;51.466;7.444;2024-03-07T18:25:57;26.70;;;15.38;;
38083;SDS011;23894;51.466;7.444;2024-03-07T18:28:01;24.67;;;14.75;;
38083;SDS011;23894;51.466;7.444;2024-03-07T18:30:05;27.95;;;16.35;;
38083;SDS011;23894;51.466;7.444;2024-03-07T18:32:12;27.00;;;14.13;;
38083;SDS011;23894;51.466;7.444;2024-03-07T18:34:13;26.60;;;13.50;;
38083;SDS011;23894;51.466;7.444;2024-03-07T18:36:14;21.35;;;13.70;;
38083;SDS011;23894;51.466;7.444;2024-03-07T18:38:15;25.52;;;13.77;;
38083;SDS011;23894;51.466;7.444;2024-03-07T18:40:16;22.92;;;14.60;;
38083;SDS011;23894;51.466;7.444;2024-03-07T18:42:22;24.25;;;14.35;;
38083;SDS011;23894;51.466;7.444;2024-03-07T18:44:23;22.40;;;13.98;;
38083;SDS011;23894;51.466;7.444;2024-03-07T18:46:24;26.33;;;15.45;;
38083;SDS011;23894;51.466;7.444;2024-03-07T18:48:25;28.52;;;14.32;;
38083;SDS011;23894;51.466;7.444;2024-03-07T18:50:26;21.33;;;13.45;;
38083;SDS011;23894;51.466;7.444;2024-03-07T18:52:27;26.50;;;15.45;;
38083;SDS011;23894;51.466;7.444;2024-03-07T18:54:28;27.83;;;14.85;;
38083;SDS011;23894;51.466;7.444;2024-03-07T18:58:30;23.42;;;14.75;;
38083;SDS011;23894;51.466;7.444;2024-03-07T19:00:31;24.25;;;14.57;;
38083;SDS011;23894;51.466;7.444;2024-03-07T19:02:32;22.23;;;14.45;;
38083;SDS011;23894;51.466;7.444;2024-03-07T19:04:33;23.75;;;14.98;;
38083;SDS011;23894;51.466;7.444;2024-03-07T19:06:38;29.27;;;15.38;;
38083;SDS011;23894;51.466;7.444;2024-03-07T19:08:38;27.17;;;15.82;;
38083;SDS011;23894;51.466;7.444;2024-03-07T19:10:42;26.55;;;14.63;;
38083;SDS011;23894;51.466;7.444;2024-03-07T19:12:43;22.77;;;14.30;;
38083;SDS011;23894;51.466;7.444;2024-03-07T19:14:44;28.23;;;14.55;;
38083;SDS011;23894;51.466;7.444;2024-03-07T19:16:47;29.95;;;14.65;;
38083;SDS011;23894;51.466;7.444;2024-03-07T19:18:48;27.67;;;14.90;;
38083;SDS011;23894;51.466;7.444;2024-03-07T19:20:50;21.70;;;13.77;;
38083;SDS011;23894;51.466;7.444;2024-03-07T19:22:54;24.25;;;14.63;;
38083;SDS011;23894;51.466;7.444;2024-03-07T19:24:55;27.17;;;15.98;;
38083;SDS011;23894;51.466;7.444;2024-03-07T19:26:58;26.83;;;15.25;;
38083;SDS011;23894;51.466;7.444;2024-03-07T19:31:00;24.10;;;13.77;;
38083;SDS011;23894;51.466;7.444;2024-03-07T19:33:00;23.77;;;13.75;;
38083;SDS011;23894;51.466;7.444;2024-03-07T19:35:05;21.20;;;13.27;;
38083;SDS011;23894;51.466;7.444;2024-03-07T19:37:07;27.95;;;15.60;;
38083;SDS011;23894;51.466;7.444;2024-03-07T19:39:09;30.20;;;16.10;;
38083;SDS011;23894;51.466;7.444;2024-03-07T19:41:12;21.40;;;13.27;;
38083;SDS011;23894;51.466;7.444;2024-03-07T19:43:14;23.17;;;13.80;;
38083;SDS011;23894;51.466;7.444;2024-03-07T19:45:16;22.48;;;13.75;;
38083;SDS011;23894;51.466;7.444;2024-03-07T19:47:17;26.38;;;13.90;;
38083;SDS011;23894;51.466;7.444;2024-03-07T19:49:18;23.15;;;14.07;;
38083;SDS011;23894;51.466;7.444;2024-03-07T19:51:19;24.17;;;13.90;;
38083;SDS011;23894;51.466;7.444;2024-03-07T19:53:24;20.15;;;13.02;;
38083;SDS011;23894;51.466;7.444;2024-03-07T19:55:26;19.88;;;12.35;;
38083;SDS011;23894;51.466;7.444;2024-03-07T19:57:30;24.33;;;13.27;;
38083;SDS011;23894;51.466;7.444;2024-03-07T19:59:34;21.02;;;12.88;;
38083;SDS011;23894;51.466;7.444;2024-03-07T20:01:34;21.30;;;12.77;;
38083;SDS011;23894;51.466;7.444;2024-03-07T20:03:38;18.98;;;11.82;;
38083;SDS011;23894;51.466;7.444;2024-03-07T20:05:39;21.58;;;12.55;;
38083;SDS011;23894;51.466;7.444;2024-03-07T20:07:40;20.65;;;12.02;;
38083;SDS011;23894;51.466;7.444;2024-03-07T20:09:41;16.50;;;11.00;;
38083;SDS011;23894;51.466;7.444;2024-03-07T20:11:43;17.95;;;12.13;;
38083;SDS011;23894;51.466;7.444;2024-03-07T20:13:46;21.05;;;12.73;;
38083;SDS011;23894;51.466;7.444;2024-03-07T20:15:47;18.38;;;12.00;;
38083;SDS011;23894;51.466;7.444;2024-03-07T20:17:49;17.00;;;11.30;;
38083;SDS011;23894;51.466;7.444;2024-03-07T20:19:50;20.77;;;12.50;;
38083;SDS011;23894;51.466;7.444;2024-03-07T20:21:51;16.98;;;11.75;;
38083;SDS011;23894;51.466;7.444;2024-03-07T20:23:52;18.27;;;11.57;;
38083;SDS011;23894;51.466;7.444;2024-03-07T20:25:53;17.67;;;10.95;;
38083;SDS011;23894;51.466;7.444;2024-03-07T20:27:54;22.20;;;12.00;;
38083;SDS011;23894;51.466;7.444;2024-03-07T20:29:58;18.00;;;11.35;;
38083;SDS011;23894;51.466;7.444;2024-03-07T20:34:00;19.08;;;11.07;;
38083;SDS011;23894;51.466;7.444;2024-03-07T20:36:01;19.00;;;10.95;;
38083;SDS011;23894;51.466;7.444;2024-03-07T20:38:03;18.58;;;11.50;;
38083;SDS011;23894;51.466;7.444;2024-03-07T20:40:06;19.67;;;11.43;;
38083;SDS011;23894;51.466;7.444;2024-03-07T20:42:08;17.52;;;11.48;;
38083;SDS011;23894;51.466;7.444;2024-03-07T20:44:11;18.15;;;11.02;;
38083;SDS011;23894;51.466;7.444;2024-03-07T20:52:15;16.17;;;10.40;;
38083;SDS011;23894;51.466;7.444;2024-03-07T20:54:16;19.77;;;11.95;;
38083;SDS011;23894;51.466;7.444;2024-03-07T20:56:20;21.48;;;12.75;;
38083;SDS011;23894;51.466;7.444;2024-03-07T20:58:21;20.35;;;12.18;;
38083;SDS011;23894;51.466;7.444;2024-03-07T21:00:22;18.88;;;12.68;;
38083;SDS011;23894;51.466;7.444;2024-03-07T21:02:24;17.52;;;10.88;;
38083;SDS011;23894;51.466;7.444;2024-03-07T21:04:25;19.95;;;11.18;;
38083;SDS011;23894;51.466;7.444;2024-03-07T21:06:27;16.65;;;11.65;;
38083;SDS011;23894;51.466;7.444;2024-03-07T21:08:28;19.00;;;13.02;;
38083;SDS011;23894;51.466;7.444;2024-03-07T21:10:32;19.33;;;12.70;;
38083;SDS011;23894;51.466;7.444;2024-03-07T21:12:35;17.27;;;11.57;;
38083;SDS011;23894;51.466;7.444;2024-03-07T21:14:35;16.92;;;10.68;;
38083;SDS011;23894;51.466;7.444;2024-03-07T21:16:37;18.33;;;11.30;;
38083;SDS011;23894;51.466;7.444;2024-03-07T21:18:43;16.70;;;11.30;;
38083;SDS011;23894;51.466;7.444;2024-03-07T21:20:44;17.30;;;11.52;;
38083;SDS011;23894;51.466;7.444;2024-03-07T21:22:48;16.73;;;11.68;;
38083;SDS011;23894;51.466;7.444;2024-03-07T21:24:53;19.52;;;12.65;;
38083;SDS011;23894;51.466;7.444;2024-03-07T23:05:10;16.23;;;12.25;;
38083;SDS011;23894;51.466;7.444;2024-03-07T23:07:12;20.90;;;14.13;;
38083;SDS011;23894;51.466;7.444;2024-03-07T23:09:13;20.65;;;14.25;;
38083;SDS011;23894;51.466;7.444;2024-03-07T23:11:17;20.85;;;14.05;;
38083;SDS011;23894;51.466;7.444;2024-03-07T23:13:19;23.33;;;14.88;;
38083;SDS011;23894;51.466;7.444;2024-03-07T23:17:23;18.73;;;13.30;;
38083;SDS011;23894;51.466;7.444;2024-03-07T23:21:25;20.25;;;14.25;;
38083;SDS011;23894;51.466;7.444;2024-03-07T23:23:26;22.15;;;15.98;;
38083;SDS011;23894;51.466;7.444;2024-03-07T23:25:27;22.25;;;15.65;;
38083;SDS011;23894;51.466;7.444;2024-03-07T23:27:28;22.17;;;15.10;;
38083;SDS011;23894;51.466;7.444;2024-03-07T23:29:30;21.23;;;15.10;;
38083;SDS011;23894;51.466;7.444;2024-03-07T23:31:32;22.63;;;14.15;;
38083;SDS011;23894;51.466;7.444;2024-03-07T23:33:33;22.88;;;15.00;;
38083;SDS011;23894;51.466;7.444;2024-03-07T23:35:34;19.08;;;14.10;;
38083;SDS011;23894;51.466;7.444;2024-03-07T23:37:35;20.50;;;14.82;;
38083;SDS011;23894;51.466;7.444;2024-03-07T23:39:36;20.92;;;15.13;;
38083;SDS011;23894;51.466;7.444;2024-03-07T23:41:38;20.10;;;14.70;;
38083;SDS011;23894;51.466;7.444;2024-03-07T23:43:39;22.13;;;15.98;;
38083;SDS011;23894;51.466;7.444;2024-03-07T23:45:40;18.85;;;13.57;;
38083;SDS011;23894;51.466;7.444;2024-03-07T23:47:41;19.10;;;13.73;;
38083;SDS011;23894;51.466;7.444;2024-03-07T23:49:42;21.23;;;15.02;;
38083;SDS011;23894;51.466;7.444;2024-03-07T23:51:44;20.05;;;15.45;;
38083;SDS011;23894;51.466;7.444;2024-03-07T23:57:49;21.65;;;13.20;;
